Time;durP1;ratioP1;P1;durP2;ratioP2;P2;SDS_P1;SDS_P2;PMS_P1;PMS_P2;Temp;Humidity;BMP_temperature;BMP_pressure;BME280_temperature;BME280_humidity;BME280_pressure;Samples;Min_cycle;Max_cycle;Signal;HPM_P1;HPM_P2
2023/06/13 00:00:51;;;;;;;;;;;;;;;16.08;53.11;99099.09;4290035;33;32998;-93
2023/06/13 00:03:22;;;;;;;;;;;;;;;15.85;53.85;99096.47;4277277;33;34544;-92
2023/06/13 00:05:54;;;;;;;;;;;;;;;15.60;54.26;99099.06;4277254;33;34393;-93
2023/06/13 00:08:24;;;;;;;;;;;;;;;15.59;53.58;99097.38;4277396;33;34741;-94
2023/06/13 00:10:51;;;;;;;;;;;;;;;15.66;56.12;99093.63;4289877;33;33441;-93
2023/06/13 00:13:19;;;;;;;;;;;;;;;15.53;56.93;99095.81;4289944;33;34933;-92
2023/06/13 00:15:49;;;;;;;;;;;;;;;15.48;57.86;99093.34;4288547;33;36081;-91
2023/06/13 00:18:19;;;;;;;;;;;;;;;15.67;55.55;99092.69;4265131;33;34457;-91
2023/06/13 00:20:47;;;;;;;;;;;;;;;15.57;55.63;99088.69;4289830;33;33288;-91
2023/06/13 00:23:16;;;;;;;;;;;;;;;15.95;53.14;99083.84;4277123;33;34680;-92
2023/06/13 00:25:44;;;;;;;;;;;;;;;15.73;54.85;99087.22;4290080;33;35239;-92
2023/06/13 00:28:11;;;;;;;;;;;;;;;15.44;55.71;99083.00;4278418;33;34430;-91
2023/06/13 00:30:39;;;;;;;;;;;;;;;15.33;55.85;99086.84;4291508;33;34150;-91
2023/06/13 00:33:07;;;;;;;;;;;;;;;15.07;58.23;99081.63;4278628;33;34174;-93
2023/06/13 00:35:35;;;;;;;;;;;;;;;15.19;58.45;99072.50;4291526;33;35018;-91
2023/06/13 00:38:07;;;;;;;;;;;;;;;15.22;56.17;99068.00;4278540;33;35222;-92
2023/06/13 00:40:35;;;;;;;;;;;;;;;15.34;55.54;99071.97;4291691;33;33400;-91
2023/06/13 00:43:03;;;;;;;;;;;;;;;15.52;53.74;99057.34;4278615;33;34260;-92
2023/06/13 00:45:33;;;;;;;;;;;;;;;15.37;53.92;99061.38;4291389;33;36400;-93
2023/06/13 00:48:05;;;;;;;;;;;;;;;16.02;51.95;99065.16;4291325;33;34751;-92
2023/06/13 00:50:40;;;;;;;;;;;;;;;15.50;54.45;99059.19;4278565;33;33363;-92
2023/06/13 00:53:09;;;;;;;;;;;;;;;15.44;55.04;99054.13;4267061;33;34180;-93
2023/06/13 00:55:38;;;;;;;;;;;;;;;15.89;52.77;99049.03;4278528;33;34658;-93
2023/06/13 00:58:07;;;;;;;;;;;;;;;15.56;53.66;99048.44;4290078;33;34748;-91
2023/06/13 01:00:35;;;;;;;;;;;;;;;15.50;53.94;99043.44;4266802;33;33977;-91
2023/06/13 01:03:07;;;;;;;;;;;;;;;15.01;57.28;99039.88;4278497;33;33822;-91
2023/06/13 01:05:35;;;;;;;;;;;;;;;14.82;60.38;99042.25;4291073;33;34996;-90
2023/06/13 01:08:04;;;;;;;;;;;;;;;14.77;58.94;99037.16;4278253;33;35269;-91
2023/06/13 01:10:32;;;;;;;;;;;;;;;14.46;58.97;99032.87;4278357;33;33348;-92
2023/06/13 01:13:13;;;;;;;;;;;;;;;14.60;57.72;99032.47;4278409;33;33882;-92
2023/06/13 01:15:53;;;;;;;;;;;;;;;14.45;58.13;99038.16;4278316;33;35014;-92
2023/06/13 01:18:24;;;;;;;;;;;;;;;14.36;58.39;99034.06;4278424;33;34274;-92
2023/06/13 01:21:00;;;;;;;;;;;;;;;14.25;59.90;99036.16;4278751;33;33413;-93
2023/06/13 01:23:49;;;;;;;;;;;;;;;14.29;62.22;99036.00;4279086;33;34934;-93
2023/06/13 01:26:36;;;;;;;;;;;;;;;14.26;63.19;99035.25;4266820;33;35142;-92
2023/06/13 01:29:04;;;;;;;;;;;;;;;13.81;63.73;99040.03;4290993;33;34558;-92
2023/06/13 01:31:32;;;;;;;;;;;;;;;13.75;65.90;99042.00;4278330;33;32998;-92
2023/06/13 01:34:00;;;;;;;;;;;;;;;13.76;65.01;99028.84;4291357;33;33659;-91
2023/06/13 01:36:27;;;;;;;;;;;;;;;13.78;63.96;99034.03;4265970;33;34957;-91
2023/06/13 01:38:56;;;;;;;;;;;;;;;12.84;69.92;99028.69;4278244;33;34734;-91
2023/06/13 01:41:23;;;;;;;;;;;;;;;12.79;71.42;99020.09;4291129;33;34101;-92
2023/06/13 01:43:51;;;;;;;;;;;;;;;13.17;68.17;99026.13;4291156;33;34015;-91
2023/06/13 01:46:23;;;;;;;;;;;;;;;12.97;70.04;99024.87;4291071;33;34898;-90
2023/06/13 01:49:28;;;;;;;;;;;;;;;12.76;70.92;99026.28;4278305;33;34679;-91
2023/06/13 01:52:08;;;;;;;;;;;;;;;12.63;70.48;99017.84;4260183;33;33409;-93
2023/06/13 01:54:36;;;;;;;;;;;;;;;12.70;71.50;99011.59;4287616;33;33798;-92
2023/06/13 01:57:06;;;;;;;;;;;;;;;13.02;69.78;99023.00;4277794;33;36093;-91
2023/06/13 01:59:33;;;;;;;;;;;;;;;12.72;71.18;99019.38;4278154;33;35095;-91
2023/06/13 02:02:01;;;;;;;;;;;;;;;12.47;71.41;99021.75;4278103;33;33260;-91
2023/06/13 02:04:29;;;;;;;;;;;;;;;12.24;72.67;99019.66;4277863;33;34562;-91
2023/06/13 02:06:57;;;;;;;;;;;;;;;12.21;72.90;99019.72;4278033;33;35010;-93
2023/06/13 02:09:25;;;;;;;;;;;;;;;11.91;74.46;99025.59;4289751;33;35080;-91
2023/06/13 02:11:53;;;;;;;;;;;;;;;12.15;73.59;99025.94;4278105;33;32320;-91
2023/06/13 02:14:21;;;;;;;;;;;;;;;12.28;72.72;99029.12;4278026;33;33860;-92
2023/06/13 02:16:49;;;;;;;;;;;;;;;12.42;71.22;99027.06;4290782;33;35673;-91
2023/06/13 02:19:18;;;;;;;;;;;;;;;12.10;72.54;99027.81;4289733;33;34576;-91
2023/06/13 02:21:47;;;;;;;;;;;;;;;12.38;72.31;99029.78;4290992;33;33337;-93
2023/06/13 02:24:18;;;;;;;;;;;;;;;12.26;71.72;99025.72;4291126;33;34973;-92
2023/06/13 02:26:46;;;;;;;;;;;;;;;12.13;72.77;99019.91;4289631;33;36156;-91
2023/06/13 02:29:15;;;;;;;;;;;;;;;12.09;72.93;99020.88;4277967;33;34360;-93
2023/06/13 02:31:43;;;;;;;;;;;;;;;11.83;74.16;99027.47;4277819;33;33365;-91
2023/06/13 02:34:11;;;;;;;;;;;;;;;11.99;74.17;99012.38;4277814;33;34068;-91
2023/06/13 02:36:39;;;;;;;;;;;;;;;12.06;73.42;99020.94;4289650;33;36062;-91
2023/06/13 02:39:09;;;;;;;;;;;;;;;11.09;77.59;99013.25;4277824;33;34756;-91
2023/06/13 02:41:37;;;;;;;;;;;;;;;11.29;77.30;99012.03;4266465;33;34089;-92
2023/06/13 02:44:05;;;;;;;;;;;;;;;11.54;76.28;99012.41;4290687;33;34190;-91
2023/06/13 02:46:33;;;;;;;;;;;;;;;11.10;79.22;99009.78;4265676;33;34473;-92
2023/06/13 02:49:02;;;;;;;;;;;;;;;11.39;77.26;99010.97;4276701;33;34337;-91
2023/06/13 02:51:29;;;;;;;;;;;;;;;11.35;77.11;99014.53;4266163;33;32457;-93
2023/06/13 02:53:57;;;;;;;;;;;;;;;11.03;78.79;99018.59;4265782;33;34003;-93
2023/06/13 02:56:26;;;;;;;;;;;;;;;11.83;74.45;99017.03;4277704;33;35345;-92
2023/06/13 02:58:54;;;;;;;;;;;;;;;11.52;76.30;99020.28;4290560;33;34812;-92
2023/06/13 03:01:22;;;;;;;;;;;;;;;11.47;75.66;99014.28;4277621;33;33828;-91
2023/06/13 03:03:51;;;;;;;;;;;;;;;11.45;76.50;99018.66;4278076;33;34809;-90
2023/06/13 03:06:19;;;;;;;;;;;;;;;11.70;74.98;99020.78;4277882;33;35803;-91
2023/06/13 03:08:48;;;;;;;;;;;;;;;11.63;75.65;99019.19;4290388;33;34616;-92
2023/06/13 03:11:16;;;;;;;;;;;;;;;11.87;74.51;99017.81;4290793;33;33428;-91
2023/06/13 03:13:45;;;;;;;;;;;;;;;11.48;76.74;99017.75;4289564;33;34202;-91
2023/06/13 03:16:13;;;;;;;;;;;;;;;11.71;76.02;99018.13;4277667;33;35204;-91
2023/06/13 03:18:41;;;;;;;;;;;;;;;11.55;76.45;99017.59;4290483;33;34312;-92
2023/06/13 03:21:09;;;;;;;;;;;;;;;11.24;79.32;99011.25;4290712;33;33039;-91
2023/06/13 03:23:37;;;;;;;;;;;;;;;11.53;78.38;99014.16;4277533;33;34005;-92
2023/06/13 03:26:06;;;;;;;;;;;;;;;11.41;79.88;99003.97;4290233;33;35999;-92
2023/06/13 03:28:33;;;;;;;;;;;;;;;11.73;77.42;99011.13;4265610;33;33350;-91
2023/06/13 03:31:01;;;;;;;;;;;;;;;11.00;80.71;99024.69;4277528;33;33374;-92
2023/06/13 03:33:30;;;;;;;;;;;;;;;11.29;80.41;99012.03;4277950;33;34155;-93
2023/06/13 03:35:58;;;;;;;;;;;;;;;12.12;75.82;99015.56;4265935;33;34966;-92
2023/06/13 03:38:27;;;;;;;;;;;;;;;11.97;75.94;99005.50;4277114;33;33431;-92
2023/06/13 03:40:55;;;;;;;;;;;;;;;11.85;77.18;99019.63;4290505;33;33847;-93
2023/06/13 03:43:25;;;;;;;;;;;;;;;11.78;77.75;99013.66;4290550;33;33946;-93
2023/06/13 03:45:53;;;;;;;;;;;;;;;11.53;79.81;99014.16;4289130;33;36054;-92
2023/06/13 03:48:22;;;;;;;;;;;;;;;11.49;80.06;99022.09;4277468;33;34659;-92
2023/06/13 03:50:50;;;;;;;;;;;;;;;11.69;79.54;99021.69;4277339;33;33112;-91
2023/06/13 03:53:18;;;;;;;;;;;;;;;11.86;78.84;99016.97;4290026;33;34047;-90
2023/06/13 03:55:48;;;;;;;;;;;;;;;12.19;77.51;99017.16;4290287;33;35143;-93
2023/06/13 03:58:18;;;;;;;;;;;;;;;11.74;79.98;99022.44;4277079;33;33871;-93
2023/06/13 04:00:46;;;;;;;;;;;;;;;12.25;77.48;99024.84;4277229;33;33117;-92
2023/06/13 04:03:14;;;;;;;;;;;;;;;11.60;82.04;99019.28;4290345;33;33977;-93
2023/06/13 04:05:42;;;;;;;;;;;;;;;11.71;83.41;99017.28;4289709;33;34816;-91
2023/06/13 04:08:11;;;;;;;;;;;;;;;11.84;84.95;99017.87;4265553;33;34605;-91
2023/06/13 04:10:39;;;;;;;;;;;;;;;12.07;85.18;99025.25;4265345;33;33097;-92
2023/06/13 04:13:07;;;;;;;;;;;;;;;12.44;84.34;99024.41;4265322;33;34864;-93
2023/06/13 04:15:36;;;;;;;;;;;;;;;12.97;82.68;99022.25;4265362;33;34868;-93
2023/06/13 04:18:04;;;;;;;;;;;;;;;13.33;79.71;99032.69;4289895;33;34313;-93
2023/06/13 04:20:34;;;;;;;;;;;;;;;13.57;77.96;99030.28;4277170;33;33481;-93
2023/06/13 04:23:01;;;;;;;;;;;;;;;13.83;77.78;99033.00;4277157;33;34245;-93
2023/06/13 04:25:30;;;;;;;;;;;;;;;14.48;75.83;99024.97;4289967;33;35167;-94
2023/06/13 04:27:58;;;;;;;;;;;;;;;14.77;73.24;99032.78;4289634;33;34466;-94
2023/06/13 04:30:28;;;;;;;;;;;;;;;14.83;71.69;99031.72;4289925;33;33793;-93
2023/06/13 04:32:57;;;;;;;;;;;;;;;15.22;69.29;99023.41;4289611;33;33757;-92
2023/06/13 04:35:26;;;;;;;;;;;;;;;15.52;64.34;99031.13;4289542;33;35280;-91
2023/06/13 04:37:56;;;;;;;;;;;;;;;15.51;64.40;99029.38;4288478;33;35023;-92
2023/06/13 04:40:31;;;;;;;;;;;;;;;15.55;62.02;99028.38;4289868;33;34029;-93
2023/06/13 04:43:03;;;;;;;;;;;;;;;15.79;62.03;99034.53;4288434;33;34836;-92
2023/06/13 04:45:33;;;;;;;;;;;;;;;16.19;61.91;99038.28;4277175;33;35170;-92
2023/06/13 04:48:03;;;;;;;;;;;;;;;16.51;58.18;99037.94;4276590;33;34350;-92
2023/06/13 04:50:31;;;;;;;;;;;;;;;16.97;56.09;99034.31;4289575;33;32692;-92
2023/06/13 04:52:59;;;;;;;;;;;;;;;16.97;55.82;99030.81;4289373;33;33850;-91
2023/06/13 04:55:32;;;;;;;;;;;;;;;17.09;56.13;99030.31;4289170;33;35178;-92
2023/06/13 04:58:01;;;;;;;;;;;;;;;16.72;55.97;99026.53;4288196;33;34772;-91
2023/06/13 05:00:28;;;;;;;;;;;;;;;17.20;51.04;99027.22;4276326;33;33344;-92
2023/06/13 05:02:57;;;;;;;;;;;;;;;17.05;50.97;99028.75;4289250;33;33777;-91
2023/06/13 05:05:25;;;;;;;;;;;;;;;17.13;54.97;99036.28;4289020;33;36068;-91
2023/06/13 05:07:57;;;;;;;;;;;;;;;17.39;51.41;99038.66;4289423;33;34768;-92
2023/06/13 05:10:26;;;;;;;;;;;;;;;17.45;51.15;99042.78;4289097;33;32979;-92
2023/06/13 05:12:55;;;;;;;;;;;;;;;17.56;51.10;99042.31;4278141;33;34060;-91
2023/06/13 05:15:23;;;;;;;;;;;;;;;17.72;50.71;99038.09;4278325;33;34970;-91
2023/06/13 05:17:54;;;;;;;;;;;;;;;18.07;50.67;99040.06;4266453;33;35487;-92
2023/06/13 05:20:26;;;;;;;;;;;;;;;18.17;50.80;99041.34;4290072;33;32896;-92
2023/06/13 05:22:56;;;;;;;;;;;;;;;18.34;48.75;99038.78;4291167;33;33791;-91
2023/06/13 05:25:24;;;;;;;;;;;;;;;18.89;44.40;99031.78;4289987;33;35373;-91
2023/06/13 05:27:55;;;;;;;;;;;;;;;18.40;45.56;99037.62;4278729;33;34640;-92
2023/06/13 05:30:23;;;;;;;;;;;;;;;17.78;46.91;99029.91;4291327;33;33422;-92
2023/06/13 05:32:51;;;;;;;;;;;;;;;18.50;47.82;99032.78;4291210;33;33685;-92
2023/06/13 05:35:20;;;;;;;;;;;;;;;18.23;47.91;99035.81;4290006;33;34982;-91
2023/06/13 05:37:49;;;;;;;;;;;;;;;18.23;48.28;99035.81;4278140;33;34446;-92
2023/06/13 05:40:16;;;;;;;;;;;;;;;19.44;43.80;99030.75;4278390;33;33013;-93
2023/06/13 05:42:45;;;;;;;;;;;;;;;20.49;42.00;99031.28;4286676;33;34328;-92
2023/06/13 05:45:12;;;;;;;;;;;;;;;20.51;40.49;99039.97;4289916;33;35260;-92
2023/06/13 05:47:40;;;;;;;;;;;;;;;19.98;43.78;99035.88;4289988;33;34708;-92
2023/06/13 05:50:08;;;;;;;;;;;;;;;19.89;44.90;99043.34;4289731;33;35468;-92
2023/06/13 05:52:36;;;;;;;;;;;;;;;20.59;43.96;99037.72;4289908;33;34071;-92
2023/06/13 05:55:04;;;;;;;;;;;;;;;20.32;41.93;99045.44;4289811;33;34350;-93
2023/06/13 05:57:39;;;;;;;;;;;;;;;20.40;40.77;99042.34;4289856;33;34642;-93
2023/06/13 06:00:12;;;;;;;;;;;;;;;19.79;42.01;99042.13;4277988;33;31828;-95
2023/06/13 06:02:42;;;;;;;;;;;;;;;19.74;43.44;99041.53;4289855;33;35060;-93
2023/06/13 06:05:11;;;;;;;;;;;;;;;19.97;42.76;99045.56;4289562;33;34975;-93
2023/06/13 06:07:39;;;;;;;;;;;;;;;19.74;45.07;99044.16;4290830;33;34218;-93
2023/06/13 06:10:07;;;;;;;;;;;;;;;19.99;44.66;99042.84;4290992;33;34088;-93
2023/06/13 06:12:35;;;;;;;;;;;;;;;19.57;41.92;99036.25;4289719;33;34101;-94
2023/06/13 06:15:03;;;;;;;;;;;;;;;20.62;40.83;99039.38;4289723;33;36084;-93
2023/06/13 06:17:31;;;;;;;;;;;;;;;20.26;43.15;99036.06;4290804;33;34474;-93
2023/06/13 06:19:59;;;;;;;;;;;;;;;19.49;43.60;99039.28;4290839;33;33290;-92
2023/06/13 06:22:27;;;;;;;;;;;;;;;19.62;43.40;99045.63;4289462;33;34886;-93
2023/06/13 06:24:55;;;;;;;;;;;;;;;20.41;41.11;99044.06;4290712;33;35308;-93
2023/06/13 06:27:23;;;;;;;;;;;;;;;19.37;44.04;99040.78;4290731;33;35314;-93
2023/06/13 06:29:51;;;;;;;;;;;;;;;19.62;44.01;99035.06;4289573;33;34133;-92
2023/06/13 06:32:19;;;;;;;;;;;;;;;19.99;43.31;99032.28;4277643;33;32583;-92
2023/06/13 06:34:47;;;;;;;;;;;;;;;19.86;40.49;99037.38;4290764;33;35135;-92
2023/06/13 06:37:15;;;;;;;;;;;;;;;20.48;42.91;99034.84;4290787;33;34365;-93
2023/06/13 06:39:43;;;;;;;;;;;;;;;20.48;41.54;99024.25;4290781;33;33482;-94
2023/06/13 06:42:11;;;;;;;;;;;;;;;20.72;38.36;99021.19;4290646;33;33788;-94
2023/06/13 06:44:40;;;;;;;;;;;;;;;21.62;39.38;99022.94;4290759;33;35999;-93
2023/06/13 06:47:12;;;;;;;;;;;;;;;21.59;40.93;99023.97;4290608;33;35410;-94
2023/06/13 06:49:40;;;;;;;;;;;;;;;21.77;40.78;99024.63;4290814;33;33721;-93
2023/06/13 06:52:08;;;;;;;;;;;;;;;21.73;40.95;99025.75;4289337;33;34089;-93
2023/06/13 06:54:36;;;;;;;;;;;;;;;22.00;39.59;99027.63;4290687;33;35469;-93
2023/06/13 06:57:05;;;;;;;;;;;;;;;21.61;37.97;99030.97;4289526;33;34205;-93
2023/06/13 06:59:33;;;;;;;;;;;;;;;22.14;36.73;99026.78;4289465;33;33084;-94
2023/06/13 07:02:01;;;;;;;;;;;;;;;21.67;36.20;99036.75;4289564;33;35106;-92
2023/06/13 07:04:28;;;;;;;;;;;;;;;22.31;40.15;99031.03;4289302;33;36073;-93
2023/06/13 07:06:56;;;;;;;;;;;;;;;21.71;37.78;99038.25;4290733;33;35882;-93
2023/06/13 07:09:24;;;;;;;;;;;;;;;23.15;34.71;99035.25;4290851;33;33342;-93
2023/06/13 07:11:56;;;;;;;;;;;;;;;22.71;38.05;99039.03;4288890;33;34200;-92
2023/06/13 07:14:25;;;;;;;;;;;;;;;22.68;36.52;99029.50;4289400;33;34968;-93
2023/06/13 07:16:56;;;;;;;;;;;;;;;22.64;35.38;99028.00;4290457;33;34336;-93
2023/06/13 07:19:23;;;;;;;;;;;;;;;22.10;35.93;99027.94;4290811;33;33119;-95
2023/06/13 07:21:51;;;;;;;;;;;;;;;22.69;34.92;99025.87;4289209;33;34994;-93
2023/06/13 07:24:19;;;;;;;;;;;;;;;22.83;37.91;99019.66;4290428;33;35127;-93
2023/06/13 07:26:47;;;;;;;;;;;;;;;22.36;37.38;99028.06;4290306;33;35296;-93
2023/06/13 07:29:15;;;;;;;;;;;;;;;22.50;37.82;99020.94;4290495;33;33353;-93
2023/06/13 07:31:43;;;;;;;;;;;;;;;24.08;33.17;99008.47;4290321;33;34386;-93
2023/06/13 07:34:11;;;;;;;;;;;;;;;23.65;34.82;99014.16;4288413;33;36120;-94
2023/06/13 07:36:59;;;;;;;;;;;;;;;23.65;34.11;99012.34;4290268;33;34379;-93
2023/06/13 07:39:27;;;;;;;;;;;;;;;24.34;33.78;99009.25;4289188;33;33404;-91
2023/06/13 07:41:54;;;;;;;;;;;;;;;24.13;34.01;99008.16;4290318;33;34977;-92
2023/06/13 07:44:22;;;;;;;;;;;;;;;23.73;31.68;99016.28;4290301;33;35286;-92
2023/06/13 07:46:50;;;;;;;;;;;;;;;23.52;36.13;99014.16;4290227;33;34657;-92
2023/06/13 07:49:18;;;;;;;;;;;;;;;24.00;36.06;99013.47;4290203;33;33703;-91
2023/06/13 07:51:46;;;;;;;;;;;;;;;23.99;35.62;99017.97;4290034;33;33865;-92
2023/06/13 07:54:14;;;;;;;;;;;;;;;23.24;36.54;99009.87;4288955;33;35296;-92
2023/06/13 07:56:44;;;;;;;;;;;;;;;23.62;33.29;99007.22;4257942;33;852205;-90
2023/06/13 07:59:14;;;;;;;;;;;;;;;24.93;34.27;99003.13;4289576;33;33302;-91
2023/06/13 08:01:43;;;;;;;;;;;;;;;24.07;36.24;99005.91;4282832;33;33742;-91
2023/06/13 08:04:11;;;;;;;;;;;;;;;24.41;35.68;98997.19;4302696;33;34958;-90
2023/06/13 08:06:39;;;;;;;;;;;;;;;23.96;37.42;99004.03;4301266;33;34513;-91
2023/06/13 08:09:11;;;;;;;;;;;;;;;24.05;36.81;99006.03;4278059;33;34027;-93
2023/06/13 08:11:39;;;;;;;;;;;;;;;23.62;36.17;98993.94;4302483;33;35008;-92
2023/06/13 08:14:08;;;;;;;;;;;;;;;24.62;39.56;99001.94;4302590;33;34871;-92
2023/06/13 08:16:36;;;;;;;;;;;;;;;24.06;37.96;99002.41;4302550;33;34345;-92
2023/06/13 08:19:05;;;;;;;;;;;;;;;23.66;38.21;98995.44;4302588;33;33321;-92
2023/06/13 08:21:32;;;;;;;;;;;;;;;23.93;39.08;98999.78;4302800;33;34216;-93
2023/06/13 08:24:00;;;;;;;;;;;;;;;24.83;39.45;98993.28;4302499;33;35396;-91
2023/06/13 08:26:32;;;;;;;;;;;;;;;23.50;36.02;98994.81;4289466;33;35446;-90
2023/06/13 08:29:03;;;;;;;;;;;;;;;23.74;36.68;98991.41;4302719;33;33291;-92
2023/06/13 08:31:32;;;;;;;;;;;;;;;23.95;38.66;99002.34;4302257;33;34119;-91
2023/06/13 08:34:03;;;;;;;;;;;;;;;24.20;36.04;98999.59;4289181;33;34595;-91
2023/06/13 08:36:38;;;;;;;;;;;;;;;23.76;37.89;99008.09;4302213;33;34778;-91
2023/06/13 08:39:07;;;;;;;;;;;;;;;23.81;37.85;99000.66;4302454;33;33390;-92
2023/06/13 08:41:35;;;;;;;;;;;;;;;23.90;36.54;99000.00;4300968;33;34105;-92
2023/06/13 08:44:04;;;;;;;;;;;;;;;24.11;35.35;98994.97;4289299;33;36090;-91
2023/06/13 08:46:32;;;;;;;;;;;;;;;24.88;34.96;98985.78;4290879;33;35436;-93
2023/06/13 08:49:00;;;;;;;;;;;;;;;24.86;34.59;98991.22;4291577;33;33401;-91
2023/06/13 08:51:29;;;;;;;;;;;;;;;24.78;36.46;98989.16;4291322;33;34231;-91
2023/06/13 08:54:02;;;;;;;;;;;;;;;26.05;34.94;99000.78;4291498;33;35726;-91
2023/06/13 08:56:35;;;;;;;;;;;;;;;24.65;35.87;98995.50;4291584;33;34460;-91
2023/06/13 08:59:30;;;;;;;;;;;;;;;24.58;34.56;99000.44;4291495;33;33484;-91
2023/06/13 09:01:59;;;;;;;;;;;;;;;24.47;38.25;99000.38;4302900;33;33810;-91
2023/06/13 09:04:29;;;;;;;;;;;;;;;24.82;35.90;99000.44;4291420;33;35272;-91
2023/06/13 09:06:58;;;;;;;;;;;;;;;24.33;38.53;98998.72;4263964;33;28268;-90
2023/06/13 09:09:26;;;;;;;;;;;;;;;24.67;34.44;98994.44;4292220;33;33196;-90
2023/06/13 09:11:55;;;;;;;;;;;;;;;24.93;33.38;98996.94;4292022;33;36374;-92
2023/06/13 09:14:23;;;;;;;;;;;;;;;24.68;35.86;98995.28;4292449;33;35206;-92
2023/06/13 09:16:52;;;;;;;;;;;;;;;24.80;36.33;98999.69;4304686;33;34635;-91
2023/06/13 09:19:20;;;;;;;;;;;;;;;23.95;34.04;98984.56;4305170;33;33748;-91
2023/06/13 09:21:48;;;;;;;;;;;;;;;24.42;39.14;98992.69;4303406;33;33906;-90
2023/06/13 09:24:16;;;;;;;;;;;;;;;24.23;36.55;98987.91;4304937;33;35989;-90
2023/06/13 09:26:45;;;;;;;;;;;;;;;25.03;34.85;98989.13;4291750;33;35406;-92
2023/06/13 09:29:13;;;;;;;;;;;;;;;25.39;33.72;98988.13;4305309;33;33810;-91
2023/06/13 09:31:44;;;;;;;;;;;;;;;25.87;32.30;98993.25;4304647;33;34054;-90
2023/06/13 09:34:15;;;;;;;;;;;;;;;25.56;33.35;98989.47;4304825;33;34986;-92
2023/06/13 09:36:43;;;;;;;;;;;;;;;25.19;34.60;98980.81;4304753;33;35005;-92
2023/06/13 09:39:11;;;;;;;;;;;;;;;25.33;34.55;98988.59;4304950;33;33005;-91
2023/06/13 09:41:39;;;;;;;;;;;;;;;25.22;34.13;98985.88;4291402;33;34273;-90
2023/06/13 09:44:07;;;;;;;;;;;;;;;25.38;33.01;98985.56;4291703;33;35002;-91
2023/06/13 09:46:37;;;;;;;;;;;;;;;25.61;34.43;98978.47;4302707;33;34726;-91
2023/06/13 09:49:06;;;;;;;;;;;;;;;24.87;33.04;98976.97;4304584;33;32838;-92
2023/06/13 09:51:35;;;;;;;;;;;;;;;25.78;33.70;98990.44;4304150;33;33970;-91
2023/06/13 09:54:02;;;;;;;;;;;;;;;24.72;33.14;98968.31;4303930;33;34882;-91
2023/06/13 09:56:30;;;;;;;;;;;;;;;25.07;34.36;98986.09;4304227;33;35048;-91
2023/06/13 09:58:58;;;;;;;;;;;;;;;25.53;31.75;98990.53;4304814;33;33759;-93
2023/06/13 10:01:28;;;;;;;;;;;;;;;26.32;31.59;98991.50;4303467;33;33837;-92
2023/06/13 10:03:56;;;;;;;;;;;;;;;25.67;33.28;98988.63;4291860;33;34892;-91
2023/06/13 10:06:24;;;;;;;;;;;;;;;26.13;33.35;98981.47;4291323;33;34246;-91
2023/06/13 10:08:52;;;;;;;;;;;;;;;25.56;32.46;98985.97;4304828;33;33286;-90
2023/06/13 10:11:22;;;;;;;;;;;;;;;25.98;33.24;98980.88;4304473;33;33793;-91
2023/06/13 10:13:54;;;;;;;;;;;;;;;25.69;33.16;98978.69;4291525;33;34958;-91
2023/06/13 10:16:23;;;;;;;;;;;;;;;25.60;33.21;98982.91;4305022;33;34720;-91
2023/06/13 10:18:53;;;;;;;;;;;;;;;25.77;33.04;98978.94;4305089;33;34071;-91
2023/06/13 10:21:22;;;;;;;;;;;;;;;26.61;31.58;98971.28;4305247;33;33822;-91
2023/06/13 10:23:50;;;;;;;;;;;;;;;25.80;36.78;98970.69;4292524;33;34977;-91
2023/06/13 10:26:25;;;;;;;;;;;;;;;25.71;31.81;98960.75;4304406;33;34717;-91
2023/06/13 10:28:57;;;;;;;;;;;;;;;27.28;31.90;98961.22;4292479;33;33270;-91
2023/06/13 10:31:35;;;;;;;;;;;;;;;25.52;33.43;98967.53;4292133;33;34568;-91
2023/06/13 10:34:12;;;;;;;;;;;;;;;26.69;33.51;98969.81;4305273;33;35169;-91
2023/06/13 10:37:00;;;;;;;;;;;;;;;26.05;33.29;98971.44;4304336;33;35559;-92
2023/06/13 10:39:36;;;;;;;;;;;;;;;25.43;32.95;98962.94;4305532;33;33402;-92
2023/06/13 10:42:07;;;;;;;;;;;;;;;25.62;34.88;98958.81;4292212;33;34168;-91
2023/06/13 10:44:38;;;;;;;;;;;;;;;25.65;31.03;98958.56;4292055;33;33823;-91
2023/06/13 10:47:06;;;;;;;;;;;;;;;26.23;30.09;98955.72;4304096;33;34693;-91
2023/06/13 10:49:38;;;;;;;;;;;;;;;25.67;31.16;98953.97;4292127;33;34164;-92
2023/06/13 10:52:10;;;;;;;;;;;;;;;25.82;30.78;98951.88;4304017;33;34521;-90
2023/06/13 10:54:39;;;;;;;;;;;;;;;26.57;30.76;98953.78;4280171;33;33781;-92
2023/06/13 10:57:07;;;;;;;;;;;;;;;26.41;33.36;98948.03;4292141;33;34363;-91
2023/06/13 10:59:40;;;;;;;;;;;;;;;26.49;34.25;98937.56;4292120;33;33107;-91
2023/06/13 11:02:09;;;;;;;;;;;;;;;25.90;33.70;98944.94;4280274;33;33330;-92
2023/06/13 11:04:37;;;;;;;;;;;;;;;25.64;30.87;98943.53;4291899;33;34248;-92
2023/06/13 11:07:23;;;;;;;;;;;;;;;25.48;32.18;98947.44;4291989;33;33524;-91
2023/06/13 11:10:01;;;;;;;;;;;;;;;25.35;34.81;98944.03;4302934;33;32989;-89
2023/06/13 11:12:29;;;;;;;;;;;;;;;25.66;31.46;98942.44;4291920;33;33586;-92
2023/06/13 11:14:57;;;;;;;;;;;;;;;26.54;30.19;98943.34;4292033;33;34889;-91
2023/06/13 11:17:26;;;;;;;;;;;;;;;26.72;32.36;98941.00;4291960;33;35326;-91
2023/06/13 11:19:55;;;;;;;;;;;;;;;26.73;31.12;98941.84;4280122;33;31697;-91
2023/06/13 11:22:24;;;;;;;;;;;;;;;27.35;29.56;98935.63;4280111;33;32815;-91
2023/06/13 11:24:52;;;;;;;;;;;;;;;26.47;30.57;98932.34;4291529;33;35161;-91
2023/06/13 11:27:20;;;;;;;;;;;;;;;25.22;30.19;98935.25;4292190;33;34460;-92
2023/06/13 11:29:48;;;;;;;;;;;;;;;25.24;32.39;98933.34;4304934;33;33045;-91
2023/06/13 11:32:16;;;;;;;;;;;;;;;25.32;30.11;98925.59;4304872;33;34133;-91
2023/06/13 11:34:48;;;;;;;;;;;;;;;24.57;32.88;98926.87;4304925;33;35202;-93
2023/06/13 11:37:19;;;;;;;;;;;;;;;24.85;32.56;98920.31;4303715;33;34736;-91
2023/06/13 11:39:47;;;;;;;;;;;;;;;24.62;33.25;98916.75;4291856;33;33081;-91
2023/06/13 11:42:24;;;;;;;;;;;;;;;23.83;33.34;98924.28;4292723;33;34145;-91
2023/06/13 11:44:53;;;;;;;;;;;;;;;23.55;35.24;98918.25;4304729;33;35197;-91
2023/06/13 11:47:21;;;;;;;;;;;;;;;24.36;33.63;98914.19;4291624;33;35043;-91
2023/06/13 11:49:56;;;;;;;;;;;;;;;24.39;34.32;98929.94;4291853;33;33519;-91
2023/06/13 11:52:24;;;;;;;;;;;;;;;24.25;33.15;98924.78;4291928;33;34865;-91
2023/06/13 11:54:54;;;;;;;;;;;;;;;23.64;36.87;98924.72;4303706;33;34717;-91
2023/06/13 11:57:23;;;;;;;;;;;;;;;23.59;35.74;98925.03;4304576;33;34358;-91
2023/06/13 12:00:00;;;;;;;;;;;;;;;24.02;31.85;98921.16;4279761;33;32303;-91
2023/06/13 12:02:31;;;;;;;;;;;;;;;24.22;31.55;98901.91;4304526;33;34673;-92
2023/06/13 12:04:59;;;;;;;;;;;;;;;25.43;32.60;98909.63;4304290;33;35034;-92
2023/06/13 12:07:27;;;;;;;;;;;;;;;25.14;32.85;98904.72;4304461;33;35362;-91
2023/06/13 12:09:55;;;;;;;;;;;;;;;25.23;32.49;98908.47;4304485;33;34087;-91
2023/06/13 12:12:23;;;;;;;;;;;;;;;24.36;35.00;98900.88;4304378;33;34123;-91
2023/06/13 12:14:54;;;;;;;;;;;;;;;24.01;33.43;98904.31;4304285;33;35222;-91
2023/06/13 12:17:23;;;;;;;;;;;;;;;24.81;33.43;98904.66;4291280;33;34729;-91
2023/06/13 12:20:06;;;;;;;;;;;;;;;24.10;30.86;98893.97;4304501;33;33352;-91
2023/06/13 12:22:33;;;;;;;;;;;;;;;25.02;33.41;98900.34;4293446;33;34641;-91
2023/06/13 12:25:02;;;;;;;;;;;;;;;25.12;32.39;98892.50;4305985;33;35505;-92
2023/06/13 12:27:30;;;;;;;;;;;;;;;25.71;31.27;98892.28;4293062;33;34406;-91
2023/06/13 12:30:08;;;;;;;;;;;;;;;26.76;32.60;98893.50;4306230;33;33174;-91
2023/06/13 12:32:38;;;;;;;;;;;;;;;26.65;31.76;98886.41;4306071;33;34165;-91
2023/06/13 12:35:06;;;;;;;;;;;;;;;27.15;30.10;98877.69;4293277;33;35245;-92
2023/06/13 12:37:35;;;;;;;;;;;;;;;26.68;30.87;98880.78;4292985;33;34742;-91
2023/06/13 12:40:11;;;;;;;;;;;;;;;26.79;29.49;98885.22;4293119;33;34915;-92
2023/06/13 12:42:42;;;;;;;;;;;;;;;26.93;28.50;98886.72;4293916;33;34121;-92
2023/06/13 12:45:11;;;;;;;;;;;;;;;26.98;30.41;98877.31;4293199;33;34598;-90
2023/06/13 12:47:39;;;;;;;;;;;;;;;27.09;30.68;98879.09;4305753;33;34646;-91
2023/06/13 12:50:07;;;;;;;;;;;;;;;27.54;29.57;98875.19;4305965;33;33733;-92
2023/06/13 12:52:36;;;;;;;;;;;;;;;27.04;30.21;98882.13;4292923;33;34800;-92
2023/06/13 12:55:04;;;;;;;;;;;;;;;27.28;30.57;98883.69;4304721;33;34943;-92
2023/06/13 12:57:32;;;;;;;;;;;;;;;27.30;29.79;98872.84;4280738;33;33553;-92
2023/06/13 13:00:01;;;;;;;;;;;;;;;26.68;27.62;98867.44;4305973;33;34139;-92